createdAt,value
2023-08-18T00:01:18.387Z,21.44
2023-08-18T00:03:46.796Z,21.48
2023-08-18T00:08:55.414Z,21.57
2023-08-18T00:11:22.825Z,21.59
2023-08-18T00:13:49.954Z,21.49
2023-08-18T00:16:17.123Z,21.41
2023-08-18T00:18:44.580Z,21.63
2023-08-18T00:21:12.061Z,21.51
2023-08-18T00:23:39.232Z,21.53
2023-08-18T00:26:10.078Z,21.36
2023-08-18T00:28:37.334Z,21.17
2023-08-18T00:31:04.612Z,20.98
2023-08-18T00:33:32.242Z,20.94
2023-08-18T00:35:59.605Z,20.83
2023-08-18T00:38:26.847Z,20.81
2023-08-18T00:40:59.190Z,20.76
2023-08-18T00:43:29.300Z,20.87
2023-08-18T00:45:58.769Z,20.91
2023-08-18T00:48:25.990Z,20.85
2023-08-18T00:50:53.716Z,20.85
2023-08-18T00:53:21.079Z,20.97
2023-08-18T00:55:49.920Z,20.86
2023-08-18T00:58:17.189Z,20.77
2023-08-18T01:00:45.972Z,20.68
2023-08-18T01:03:13.254Z,20.61
2023-08-18T01:05:40.418Z,20.69
2023-08-18T01:08:07.715Z,20.66
2023-08-18T01:10:46.319Z,20.83
2023-08-18T01:13:48.255Z,20.90
2023-08-18T01:16:28.113Z,20.84
2023-08-18T01:18:56.565Z,20.95
2023-08-18T01:21:25.695Z,21.14
2023-08-18T01:23:52.947Z,21.33
2023-08-18T01:26:23.087Z,21.50
2023-08-18T01:28:50.447Z,21.58
2023-08-18T01:31:32.771Z,21.61
2023-08-18T01:34:05.730Z,21.66
2023-08-18T01:36:42.375Z,21.78
2023-08-18T01:39:10.672Z,21.75
2023-08-18T01:41:40.341Z,21.74
2023-08-18T01:44:07.883Z,21.60
2023-08-18T01:46:35.129Z,21.40
2023-08-18T01:49:02.306Z,21.21
2023-08-18T01:51:29.458Z,21.00
2023-08-18T01:53:56.700Z,20.86
2023-08-18T01:56:23.817Z,20.77
2023-08-18T01:58:51.143Z,20.73
2023-08-18T02:01:18.281Z,20.62
2023-08-18T02:03:45.556Z,20.62
2023-08-18T02:06:13.453Z,20.55
2023-08-18T02:08:40.819Z,20.59
2023-08-18T02:11:08.026Z,20.68
2023-08-18T02:13:35.550Z,20.74
2023-08-18T02:16:03.880Z,20.75
2023-08-18T02:18:33.491Z,20.62
2023-08-18T02:21:03.562Z,20.41
2023-08-18T02:23:30.801Z,20.49
2023-08-18T02:26:05.887Z,20.46
2023-08-18T02:28:34.338Z,20.63
2023-08-18T02:31:07.255Z,20.72
2023-08-18T02:33:35.555Z,20.77
2023-08-18T02:36:03.224Z,20.90
2023-08-18T02:38:31.923Z,20.77
2023-08-18T02:40:59.193Z,20.83
2023-08-18T02:43:26.722Z,20.96
2023-08-18T02:45:57.858Z,21.16
2023-08-18T02:48:29.654Z,21.28
2023-08-18T02:51:04.188Z,21.24
2023-08-18T02:53:32.779Z,21.30
2023-08-18T02:56:01.072Z,21.27
2023-08-18T02:58:29.385Z,21.24
2023-08-18T03:01:01.470Z,21.19
2023-08-18T03:03:28.770Z,21.11
2023-08-18T03:06:04.229Z,20.97
2023-08-18T03:08:32.220Z,20.94
2023-08-18T03:11:01.090Z,20.93
2023-08-18T03:13:29.110Z,20.92
2023-08-18T03:15:56.623Z,20.93
2023-08-18T03:18:24.390Z,20.92
2023-08-18T03:20:58.758Z,20.94
2023-08-18T03:23:26.312Z,20.76
2023-08-18T03:26:04.029Z,20.72
2023-08-18T03:28:34.265Z,20.62
2023-08-18T03:31:03.201Z,20.62
2023-08-18T03:33:32.675Z,20.70
2023-08-18T03:36:00.654Z,20.56
2023-08-18T03:38:28.035Z,20.64
2023-08-18T03:41:08.358Z,20.66
2023-08-18T03:43:36.179Z,20.77
2023-08-18T03:46:29.831Z,20.95
2023-08-18T03:48:59.744Z,20.83
2023-08-18T03:51:28.344Z,20.62
2023-08-18T03:53:56.425Z,20.45
2023-08-18T03:56:23.681Z,20.42
2023-08-18T03:58:51.135Z,20.23
2023-08-18T04:01:19.705Z,19.96
2023-08-18T04:03:49.751Z,19.96
2023-08-18T04:06:17.423Z,20.04
2023-08-18T04:08:45.571Z,20.19
2023-08-18T04:11:13.497Z,20.32
2023-08-18T04:13:41.190Z,20.30
2023-08-18T04:16:08.771Z,20.41
2023-08-18T04:18:37.450Z,20.52
2023-08-18T04:21:04.658Z,20.61
2023-08-18T04:23:32.534Z,20.66
2023-08-18T04:25:59.914Z,20.71
2023-08-18T04:28:27.315Z,20.72
2023-08-18T04:30:55.337Z,20.74
2023-08-18T04:33:31.982Z,20.78
2023-08-18T04:36:02.734Z,20.88
2023-08-18T04:38:31.824Z,20.62
2023-08-18T04:41:01.149Z,20.42
2023-08-18T04:43:30.170Z,20.06
2023-08-18T04:45:58.925Z,19.78
2023-08-18T04:48:26.925Z,19.73
2023-08-18T04:50:55.031Z,19.77
2023-08-18T04:53:22.286Z,20.06
2023-08-18T04:55:49.601Z,20.36
2023-08-18T04:58:17.094Z,20.56
2023-08-18T05:00:45.208Z,20.72
2023-08-18T05:03:13.667Z,20.78
2023-08-18T05:06:13.928Z,20.85
2023-08-18T05:08:41.865Z,20.87
2023-08-18T05:11:11.947Z,20.97
2023-08-18T05:13:42.081Z,20.98
2023-08-18T05:16:09.656Z,21.00
2023-08-18T05:18:37.070Z,21.00
2023-08-18T05:21:04.567Z,21.11
2023-08-18T05:23:32.184Z,21.17
2023-08-18T05:26:01.356Z,21.22
2023-08-18T05:28:33.920Z,21.22
2023-08-18T05:31:01.761Z,21.46
2023-08-18T05:33:29.000Z,21.44
2023-08-18T05:36:00.342Z,21.40
2023-08-18T05:38:28.454Z,21.32
2023-08-18T05:41:08.017Z,21.40
2023-08-18T05:43:38.278Z,21.74
2023-08-18T05:46:06.309Z,21.60
2023-08-18T05:48:34.070Z,21.85
2023-08-18T05:51:02.303Z,21.70
2023-08-18T05:53:31.577Z,21.85
2023-08-18T05:55:58.749Z,21.65
2023-08-18T05:58:25.926Z,21.65
2023-08-18T06:00:55.553Z,21.79
2023-08-18T06:03:22.911Z,21.80
2023-08-18T06:05:50.691Z,21.87
2023-08-18T06:08:18.106Z,21.96
2023-08-18T06:10:48.289Z,22.03
2023-08-18T06:13:15.521Z,22.03
2023-08-18T06:15:44.096Z,22.03
2023-08-18T06:18:11.322Z,22.30
2023-08-18T06:20:38.582Z,22.26
2023-08-18T06:23:05.985Z,22.25
2023-08-18T06:25:33.325Z,22.28
2023-08-18T06:28:00.547Z,22.31
2023-08-18T06:30:27.782Z,22.16
2023-08-18T06:32:55.013Z,22.07
2023-08-18T06:35:22.200Z,22.17
2023-08-18T06:37:49.386Z,22.27
2023-08-18T06:40:16.700Z,22.25
2023-08-18T06:42:43.843Z,22.48
2023-08-18T06:45:11.159Z,22.68
2023-08-18T06:47:38.354Z,22.91
2023-08-18T06:50:11.031Z,22.98
2023-08-18T06:55:14.753Z,23.13
2023-08-18T06:57:43.194Z,23.18
2023-08-18T07:00:14.566Z,23.37
2023-08-18T07:02:42.032Z,23.57
2023-08-18T07:05:09.308Z,23.80
2023-08-18T07:07:36.755Z,23.99
2023-08-18T07:10:04.172Z,24.22
2023-08-18T07:12:31.925Z,24.38
2023-08-18T07:14:59.420Z,24.51
2023-08-18T07:17:27.227Z,24.67
2023-08-18T07:19:54.449Z,24.86
2023-08-18T07:22:21.684Z,25.05
2023-08-18T07:24:50.008Z,25.04
2023-08-18T07:27:17.364Z,25.01
2023-08-18T07:29:44.736Z,24.95
2023-08-18T07:32:12.005Z,25.06
2023-08-18T07:34:39.169Z,24.98
2023-08-18T07:37:06.960Z,24.97
2023-08-18T07:39:34.298Z,25.03
2023-08-18T07:42:01.519Z,25.24
2023-08-18T07:44:28.868Z,25.11
2023-08-18T07:46:56.210Z,25.24
2023-08-18T07:49:23.487Z,25.42
2023-08-18T07:51:51.097Z,25.47
2023-08-18T07:54:18.393Z,25.43
2023-08-18T07:56:45.691Z,25.41
2023-08-18T07:59:12.846Z,25.47
2023-08-18T08:01:40.186Z,25.68
2023-08-18T08:04:07.391Z,25.77
2023-08-18T08:06:34.867Z,26.00
2023-08-18T08:09:02.468Z,25.99
2023-08-18T08:11:29.757Z,26.15
2023-08-18T08:13:56.982Z,26.48
2023-08-18T08:16:24.668Z,26.52
2023-08-18T08:18:51.964Z,26.78
2023-08-18T08:21:19.345Z,27.00
2023-08-18T08:23:48.658Z,27.12
2023-08-18T08:26:16.333Z,27.29
2023-08-18T08:28:45.328Z,26.68
2023-08-18T08:31:12.595Z,26.87
2023-08-18T08:33:39.818Z,26.88
2023-08-18T08:36:07.089Z,26.84
2023-08-18T08:38:34.235Z,26.81
2023-08-18T08:41:02.056Z,26.74
2023-08-18T08:43:29.736Z,26.58
2023-08-18T08:45:59.267Z,26.68
2023-08-18T08:48:39.078Z,27.00
2023-08-18T08:51:10.309Z,27.20
2023-08-18T08:53:40.753Z,26.98
2023-08-18T08:56:09.626Z,26.95
2023-08-18T08:58:37.535Z,26.78
2023-08-18T09:01:10.044Z,26.85
2023-08-18T09:03:42.701Z,26.96
2023-08-18T09:06:12.426Z,27.18
2023-08-18T09:08:39.851Z,27.50
2023-08-18T09:11:07.208Z,27.90
2023-08-18T09:13:35.771Z,27.94
2023-08-18T09:16:07.661Z,27.68
2023-08-18T09:18:35.618Z,27.60
2023-08-18T09:21:05.955Z,27.44
2023-08-18T09:23:33.199Z,27.98
2023-08-18T09:26:00.476Z,28.17
2023-08-18T09:28:27.951Z,28.35
2023-08-18T09:30:55.346Z,28.52
2023-08-18T09:36:00.673Z,28.23
2023-08-18T09:38:29.909Z,28.26
2023-08-18T09:40:58.089Z,28.60
2023-08-18T09:43:25.869Z,28.68
2023-08-18T09:45:58.767Z,28.79
2023-08-18T09:48:33.007Z,28.85
2023-08-18T09:51:01.335Z,28.82
2023-08-18T09:53:32.155Z,28.67
2023-08-18T09:56:32.183Z,28.75
2023-08-18T09:59:18.706Z,28.76
2023-08-18T10:01:48.806Z,29.09
2023-08-18T10:04:18.138Z,28.99
2023-08-18T10:06:46.079Z,29.01
2023-08-18T10:09:13.638Z,28.89
2023-08-18T10:11:52.156Z,28.80
2023-08-18T10:14:24.000Z,28.87
2023-08-18T10:16:54.088Z,28.89
2023-08-18T10:19:47.902Z,28.99
2023-08-18T10:22:19.910Z,29.08
2023-08-18T10:24:48.178Z,28.91
2023-08-18T10:27:30.939Z,28.53
2023-08-18T10:30:01.449Z,28.39
2023-08-18T10:32:31.222Z,28.43
2023-08-18T10:35:28.758Z,28.31
2023-08-18T10:38:02.496Z,28.25
2023-08-18T10:40:31.702Z,28.29
2023-08-18T10:43:03.769Z,28.37
2023-08-18T10:45:31.962Z,28.38
2023-08-18T10:48:00.960Z,28.29
2023-08-18T10:50:33.095Z,28.05
2023-08-18T10:53:02.510Z,28.00
2023-08-18T10:55:31.255Z,27.89
2023-08-18T10:57:58.930Z,27.96
2023-08-18T11:00:27.234Z,27.89
2023-08-18T11:02:54.503Z,28.12
2023-08-18T11:05:23.293Z,28.25
2023-08-18T11:07:53.889Z,28.35
2023-08-18T11:10:23.231Z,28.20
2023-08-18T11:12:55.495Z,28.27
2023-08-18T11:15:24.555Z,28.35
2023-08-18T11:17:52.310Z,28.32
2023-08-18T11:20:20.353Z,28.24
2023-08-18T11:22:55.246Z,28.24
2023-08-18T11:25:24.935Z,28.05
2023-08-18T11:27:54.240Z,27.93
2023-08-18T11:30:22.590Z,27.87
2023-08-18T11:32:50.533Z,27.92
2023-08-18T11:35:20.179Z,28.11
2023-08-18T11:37:50.275Z,28.16
2023-08-18T11:40:19.570Z,28.25
2023-08-18T11:42:48.881Z,28.25
2023-08-18T11:45:19.301Z,28.05
2023-08-18T11:47:57.156Z,28.18
2023-08-18T11:50:39.360Z,28.34
2023-08-18T11:53:08.477Z,28.44
2023-08-18T11:55:45.719Z,28.43
2023-08-18T11:58:16.558Z,28.48
2023-08-18T12:00:46.845Z,28.40
2023-08-18T12:03:28.360Z,28.55
2023-08-18T12:05:57.873Z,28.59
2023-08-18T12:08:28.042Z,28.60
2023-08-18T12:10:56.912Z,28.93
2023-08-18T12:13:26.034Z,28.85
2023-08-18T12:15:53.327Z,28.98
2023-08-18T12:18:20.759Z,29.09
2023-08-18T12:20:47.966Z,29.00
2023-08-18T12:23:15.120Z,29.14
2023-08-18T12:25:42.263Z,29.07
2023-08-18T12:28:09.583Z,29.01
2023-08-18T12:30:36.855Z,29.08
2023-08-18T12:33:04.969Z,29.02
2023-08-18T12:35:32.457Z,29.15
2023-08-18T12:37:59.714Z,29.23
2023-08-18T12:40:26.932Z,29.26
2023-08-18T12:42:54.076Z,29.07
2023-08-18T12:45:22.145Z,29.12
2023-08-18T12:47:49.432Z,28.97
2023-08-18T12:50:16.685Z,29.03
2023-08-18T12:52:43.892Z,29.01
2023-08-18T12:55:11.138Z,29.03
2023-08-18T13:01:54.550Z,29.16
2023-08-18T13:04:21.879Z,29.41
2023-08-18T13:06:49.403Z,29.35
2023-08-18T13:09:16.657Z,29.33
2023-08-18T13:11:43.889Z,29.40
2023-08-18T13:14:11.020Z,29.56
2023-08-18T13:16:43.998Z,29.60
2023-08-18T13:19:13.718Z,29.64
2023-08-18T13:21:41.153Z,29.54
2023-08-18T13:24:08.489Z,29.56
2023-08-18T13:26:35.989Z,29.48
2023-08-18T13:29:03.387Z,29.64
2023-08-18T13:31:30.591Z,29.64
2023-08-18T13:33:57.731Z,29.59
2023-08-18T13:36:24.906Z,29.70
2023-08-18T13:38:52.017Z,29.79
2023-08-18T13:41:19.241Z,29.82
2023-08-18T13:43:46.696Z,29.87
2023-08-18T13:46:13.916Z,29.90
2023-08-18T13:48:41.214Z,29.95
2023-08-18T13:51:08.341Z,30.11
2023-08-18T13:53:35.547Z,30.01
2023-08-18T13:56:05.617Z,29.99
2023-08-18T13:58:32.769Z,29.98
2023-08-18T14:01:04.832Z,29.90
2023-08-18T14:03:32.790Z,29.91
2023-08-18T14:06:00.470Z,30.07
2023-08-18T14:08:27.817Z,29.90
2023-08-18T14:10:54.997Z,29.73
2023-08-18T14:13:22.160Z,29.90
2023-08-18T14:15:49.575Z,29.89
2023-08-18T14:18:17.499Z,30.02
2023-08-18T14:20:45.474Z,29.96
2023-08-18T14:23:12.870Z,29.98
2023-08-18T14:25:41.466Z,29.95
2023-08-18T14:28:08.718Z,29.92
2023-08-18T14:30:36.141Z,29.73
2023-08-18T14:33:03.703Z,29.77
2023-08-18T14:35:30.934Z,29.79
2023-08-18T14:37:58.468Z,29.93
2023-08-18T14:40:25.806Z,29.92
2023-08-18T14:43:03.245Z,30.10
2023-08-18T14:45:38.428Z,30.03
2023-08-18T14:48:06.950Z,29.89
2023-08-18T14:50:36.048Z,29.92
2023-08-18T14:53:03.487Z,29.76
2023-08-18T14:55:31.705Z,29.73
2023-08-18T14:57:58.934Z,29.61
2023-08-18T15:00:26.124Z,29.66
2023-08-18T15:02:53.794Z,29.66
2023-08-18T15:05:21.100Z,29.62
2023-08-18T15:07:48.201Z,29.43
2023-08-18T15:10:15.399Z,29.51
2023-08-18T15:12:43.130Z,29.47
2023-08-18T15:15:10.871Z,29.49
2023-08-18T15:17:38.149Z,29.28
2023-08-18T15:20:09.458Z,29.27
2023-08-18T15:22:36.674Z,29.32
2023-08-18T15:25:04.652Z,29.36
2023-08-18T15:27:35.095Z,29.43
2023-08-18T15:30:03.399Z,29.40
2023-08-18T15:32:30.577Z,29.41
2023-08-18T15:34:57.778Z,29.47
2023-08-18T15:37:25.097Z,29.50
2023-08-18T15:39:53.597Z,29.45
2023-08-18T15:42:20.831Z,29.43
2023-08-18T15:44:48.199Z,29.51
2023-08-18T15:47:15.339Z,29.47
2023-08-18T15:49:42.456Z,29.37
2023-08-18T15:52:09.676Z,29.18
2023-08-18T15:54:36.904Z,29.22
2023-08-18T15:57:04.257Z,29.17
2023-08-18T15:59:32.251Z,29.19
2023-08-18T16:01:59.555Z,29.10
2023-08-18T16:04:26.776Z,29.12
2023-08-18T16:06:54.469Z,29.17
2023-08-18T16:09:21.659Z,29.19
2023-08-18T16:11:48.829Z,29.18
2023-08-18T16:14:54.308Z,29.05
2023-08-18T16:17:04.936Z,29.09
2023-08-18T16:19:32.189Z,28.94
2023-08-18T16:22:00.064Z,28.96
2023-08-18T16:24:27.444Z,28.94
2023-08-18T16:26:57.152Z,28.90
2023-08-18T16:29:24.963Z,28.91
2023-08-18T16:31:52.216Z,28.91
2023-08-18T16:34:22.570Z,28.88
2023-08-18T16:36:50.145Z,28.80
2023-08-18T16:39:18.070Z,28.67
2023-08-18T16:41:45.777Z,28.58
2023-08-18T16:44:12.947Z,28.52
2023-08-18T16:46:41.007Z,28.60
2023-08-18T16:49:08.374Z,28.45
2023-08-18T16:51:36.200Z,28.38
2023-08-18T16:54:04.074Z,28.41
2023-08-18T16:56:31.594Z,28.41
2023-08-18T16:58:59.098Z,28.38
2023-08-18T17:01:26.321Z,28.33
2023-08-18T17:03:54.040Z,28.19
2023-08-18T17:06:21.647Z,28.07
2023-08-18T17:08:51.078Z,28.05
2023-08-18T17:11:18.471Z,28.03
2023-08-18T17:13:49.005Z,27.96
2023-08-18T17:16:16.394Z,27.92
2023-08-18T17:18:43.741Z,27.86
2023-08-18T17:21:11.012Z,27.83
2023-08-18T17:23:40.767Z,27.76
2023-08-18T17:26:07.914Z,27.74
2023-08-18T17:28:35.057Z,27.74
2023-08-18T17:31:06.350Z,27.73
2023-08-18T17:33:34.464Z,27.62
2023-08-18T17:36:02.249Z,27.53
2023-08-18T17:38:29.530Z,27.54
2023-08-18T17:40:57.372Z,27.48
2023-08-18T17:43:25.281Z,27.45
2023-08-18T17:45:56.418Z,27.45
2023-08-18T17:48:24.457Z,27.46
2023-08-18T17:50:58.036Z,27.52
2023-08-18T17:53:32.252Z,27.48
2023-08-18T17:56:00.265Z,27.36
2023-08-18T17:58:27.894Z,27.32
2023-08-18T18:00:55.241Z,27.32
2023-08-18T18:03:22.773Z,27.26
2023-08-18T18:05:50.173Z,27.22
2023-08-18T18:08:17.505Z,27.28
2023-08-18T18:10:47.124Z,27.21
2023-08-18T18:13:15.360Z,27.10
2023-08-18T18:15:43.671Z,27.04
2023-08-18T18:18:11.189Z,27.03
2023-08-18T18:20:38.681Z,27.00
2023-08-18T18:23:06.211Z,26.93
2023-08-18T18:25:33.398Z,26.95
2023-08-18T18:28:00.648Z,27.05
2023-08-18T18:30:28.574Z,27.06
2023-08-18T18:32:55.908Z,26.86
2023-08-18T18:35:24.673Z,26.79
2023-08-18T18:37:52.158Z,26.73
2023-08-18T18:40:23.647Z,26.74
2023-08-18T18:42:51.187Z,26.65
2023-08-18T18:45:20.836Z,26.58
2023-08-18T18:47:48.550Z,26.54
2023-08-18T18:50:15.816Z,26.53
2023-08-18T18:52:43.224Z,26.49
2023-08-18T18:55:10.483Z,26.45
2023-08-18T18:57:37.689Z,26.39
2023-08-18T19:00:05.397Z,26.41
2023-08-18T19:02:35.140Z,26.33
2023-08-18T19:05:02.910Z,26.31
2023-08-18T19:07:30.737Z,26.25
2023-08-18T19:09:58.364Z,26.19
2023-08-18T19:12:25.652Z,26.23
2023-08-18T19:14:52.917Z,26.19
2023-08-18T19:17:20.193Z,26.18
2023-08-18T19:19:47.474Z,26.14
2023-08-18T19:22:17.462Z,26.05
2023-08-18T19:24:44.600Z,26.04
2023-08-18T19:27:11.895Z,26.03
2023-08-18T19:29:39.108Z,25.94
2023-08-18T19:32:10.149Z,25.88
2023-08-18T19:34:37.397Z,25.80
2023-08-18T19:37:07.163Z,25.80
2023-08-18T19:39:34.922Z,25.76
2023-08-18T19:42:02.158Z,25.73
2023-08-18T19:44:29.347Z,25.79
2023-08-18T19:46:57.021Z,25.78
2023-08-18T19:49:24.196Z,25.68
2023-08-18T19:51:51.284Z,25.60
2023-08-18T19:54:19.736Z,25.64
2023-08-18T19:56:47.037Z,25.62
2023-08-18T19:59:14.307Z,25.63
2023-08-18T20:01:42.040Z,25.54
2023-08-18T20:04:09.400Z,25.50
2023-08-18T20:06:36.611Z,25.50
2023-08-18T20:09:04.228Z,25.42
2023-08-18T20:11:31.529Z,25.38
2023-08-18T20:13:58.749Z,25.31
2023-08-18T20:16:26.381Z,25.29
2023-08-18T20:18:53.596Z,25.15
2023-08-18T20:21:20.836Z,25.13
2023-08-18T20:23:48.365Z,25.18
2023-08-18T20:26:15.550Z,25.24
2023-08-18T20:28:43.030Z,25.21
2023-08-18T20:31:11.035Z,25.23
2023-08-18T20:33:38.325Z,25.28
2023-08-18T20:36:05.820Z,25.26
2023-08-18T20:38:34.916Z,25.27
2023-08-18T20:41:06.869Z,25.21
2023-08-18T20:43:33.996Z,25.18
2023-08-18T20:46:01.461Z,25.04
2023-08-18T20:48:30.346Z,25.03
2023-08-18T20:50:57.932Z,25.03
2023-08-18T20:53:25.339Z,24.90
2023-08-18T20:55:52.778Z,25.05
2023-08-18T20:58:20.075Z,24.89
2023-08-18T21:00:47.770Z,24.76
2023-08-18T21:03:15.240Z,24.68
2023-08-18T21:05:47.189Z,24.66
2023-08-18T21:08:14.360Z,24.63
2023-08-18T21:10:41.780Z,24.65
2023-08-18T21:13:09.018Z,24.65
2023-08-18T21:15:36.258Z,24.66
2023-08-18T21:18:04.000Z,24.70
2023-08-18T21:20:33.353Z,24.68
2023-08-18T21:23:00.638Z,24.68
2023-08-18T21:25:27.808Z,24.69
2023-08-18T21:27:58.649Z,24.66
2023-08-18T21:30:26.208Z,24.65
2023-08-18T21:32:53.416Z,24.65
2023-08-18T21:35:20.772Z,24.59
2023-08-18T21:37:47.879Z,24.53
2023-08-18T21:40:15.033Z,24.46
2023-08-18T21:42:42.410Z,24.42
2023-08-18T21:45:09.983Z,24.24
2023-08-18T21:47:37.259Z,24.21
2023-08-18T21:50:06.026Z,24.18
2023-08-18T21:52:33.481Z,24.08
2023-08-18T21:55:00.854Z,24.05
2023-08-18T21:57:28.020Z,24.02
2023-08-18T21:59:55.582Z,24.00
2023-08-18T22:02:22.839Z,24.03
2023-08-18T22:04:50.132Z,23.96
2023-08-18T22:07:17.468Z,23.96
2023-08-18T22:09:44.646Z,23.86
2023-08-18T22:12:11.784Z,23.74
2023-08-18T22:14:41.757Z,23.72
2023-08-18T22:17:09.152Z,23.75
2023-08-18T22:19:36.260Z,23.72
2023-08-18T22:22:04.646Z,23.79
2023-08-18T22:24:31.868Z,23.80
2023-08-18T22:26:59.001Z,23.74
2023-08-18T22:29:26.265Z,23.67
2023-08-18T22:31:53.510Z,23.71
2023-08-18T22:34:20.664Z,23.62
2023-08-18T22:36:47.850Z,23.77
2023-08-18T22:39:15.649Z,23.72
2023-08-18T22:41:42.833Z,23.58
2023-08-18T22:44:10.022Z,23.46
2023-08-18T22:46:37.201Z,23.60
2023-08-18T22:49:04.411Z,23.22
2023-08-18T22:51:31.583Z,23.22
2023-08-18T22:53:58.732Z,23.12
2023-08-18T22:56:25.869Z,23.35
2023-08-18T22:58:53.030Z,23.04
2023-08-18T23:01:20.826Z,22.94
2023-08-18T23:03:48.103Z,23.00
2023-08-18T23:06:15.342Z,22.98
2023-08-18T23:08:42.555Z,23.08
2023-08-18T23:11:09.830Z,23.10
2023-08-18T23:13:36.973Z,23.15
2023-08-18T23:16:04.653Z,23.23
2023-08-18T23:18:32.254Z,23.03
2023-08-18T23:20:59.476Z,22.99
2023-08-18T23:23:26.771Z,23.09
2023-08-18T23:25:53.907Z,23.10
2023-08-18T23:28:21.105Z,23.05
2023-08-18T23:30:48.635Z,22.86
2023-08-18T23:33:15.938Z,22.44
2023-08-18T23:35:43.122Z,22.43
2023-08-18T23:38:10.231Z,22.45
2023-08-18T23:40:40.401Z,22.24
2023-08-18T23:43:08.486Z,22.43
2023-08-18T23:45:35.674Z,22.50
2023-08-18T23:48:03.034Z,22.56
2023-08-18T23:50:30.234Z,22.72
2023-08-18T23:52:57.539Z,22.65
2023-08-18T23:55:25.128Z,22.68
2023-08-18T23:57:52.897Z,22.71
